createdAt,value
2019-05-10T00:00:14.767Z,61.54
2019-05-10T00:03:02.543Z,61.51
2019-05-10T00:05:50.424Z,61.44
2019-05-10T00:08:38.322Z,61.54
2019-05-10T00:11:27.276Z,61.63
2019-05-10T00:14:19.454Z,61.73
2019-05-10T00:16:51.116Z,61.75
2019-05-10T00:19:22.258Z,61.76
2019-05-10T00:21:52.038Z,61.68
2019-05-10T00:24:23.080Z,61.57
2019-05-10T00:26:53.030Z,61.64
2019-05-10T00:29:23.029Z,61.82
2019-05-10T00:31:52.861Z,61.73
2019-05-10T00:34:22.644Z,61.70
2019-05-10T00:36:52.437Z,61.75
2019-05-10T00:39:22.244Z,61.66
2019-05-10T00:41:52.160Z,61.62
2019-05-10T00:44:21.947Z,61.50
2019-05-10T00:46:51.866Z,61.38
2019-05-10T00:49:21.799Z,61.17
2019-05-10T00:51:53.104Z,61.13
2019-05-10T00:54:23.152Z,61.12
2019-05-10T00:56:53.020Z,61.07
2019-05-10T00:59:22.850Z,61.16
2019-05-10T01:05:40.549Z,61.21
2019-05-10T01:08:10.335Z,61.35
2019-05-10T01:10:40.255Z,61.26
2019-05-10T01:13:10.483Z,61.34
2019-05-10T01:15:40.733Z,61.43
2019-05-10T01:18:10.698Z,61.55
2019-05-10T01:20:40.481Z,61.57
2019-05-10T01:23:10.666Z,61.62
2019-05-10T01:25:40.490Z,61.72
2019-05-10T01:28:10.391Z,61.70
2019-05-10T01:30:40.425Z,61.63
2019-05-10T01:33:10.494Z,61.76
2019-05-10T01:35:40.339Z,61.81
2019-05-10T01:38:11.287Z,61.73
2019-05-10T01:40:41.615Z,61.56
2019-05-10T01:43:11.482Z,61.48
2019-05-10T01:45:41.318Z,61.60
2019-05-10T01:48:12.091Z,61.80
2019-05-10T01:50:41.992Z,61.61
2019-05-10T01:53:12.034Z,61.55
2019-05-10T01:55:51.602Z,61.50
2019-05-10T01:58:13.895Z,61.39
2019-05-10T02:00:43.768Z,61.51
2019-05-10T02:03:13.653Z,61.79
2019-05-10T02:05:43.571Z,61.88
2019-05-10T02:08:13.505Z,61.68
2019-05-10T02:10:43.435Z,61.63
2019-05-10T02:13:13.232Z,61.47
2019-05-10T02:15:43.279Z,61.42
2019-05-10T02:18:13.409Z,61.37
2019-05-10T02:20:43.230Z,61.60
2019-05-10T02:23:13.155Z,61.51
2019-05-10T02:25:43.075Z,61.58
2019-05-10T02:28:13.193Z,61.55
2019-05-10T02:30:43.225Z,61.62
2019-05-10T02:33:13.338Z,61.58
2019-05-10T02:35:43.223Z,61.63
2019-05-10T02:38:13.093Z,61.73
2019-05-10T02:40:43.018Z,61.75
2019-05-10T02:43:12.892Z,61.87
2019-05-10T02:45:42.660Z,61.88
2019-05-10T02:48:12.584Z,62.08
2019-05-10T02:50:42.448Z,62.35
2019-05-10T02:53:12.430Z,62.50
2019-05-10T02:55:43.474Z,62.57
2019-05-10T02:58:15.472Z,62.57
2019-05-10T03:00:48.756Z,62.85
2019-05-10T03:03:21.844Z,62.97
2019-05-10T03:05:53.792Z,63.23
2019-05-10T03:08:24.693Z,63.38
2019-05-10T03:11:00.058Z,63.50
2019-05-10T03:13:31.105Z,63.63
2019-05-10T03:16:04.866Z,63.69
2019-05-10T03:18:34.734Z,63.81
2019-05-10T03:21:07.343Z,63.82
2019-05-10T03:23:39.425Z,63.52
2019-05-10T03:26:09.441Z,63.47
2019-05-10T03:28:39.415Z,63.61
2019-05-10T03:31:09.318Z,63.62
2019-05-10T03:33:39.795Z,63.86
2019-05-10T03:36:10.164Z,63.93
2019-05-10T03:38:40.371Z,63.84
2019-05-10T03:41:10.394Z,63.71
2019-05-10T03:43:40.591Z,63.54
2019-05-10T03:46:10.466Z,63.45
2019-05-10T03:48:40.377Z,63.74
2019-05-10T03:51:10.218Z,63.53
2019-05-10T03:53:40.107Z,63.38
2019-05-10T03:56:10.160Z,63.21
2019-05-10T03:58:40.371Z,63.27
2019-05-10T04:01:10.508Z,63.21
2019-05-10T04:03:40.396Z,63.17
2019-05-10T04:06:11.313Z,63.15
2019-05-10T04:08:41.174Z,63.25
2019-05-10T04:11:11.242Z,63.54
2019-05-10T04:13:41.138Z,63.60
2019-05-10T04:16:11.092Z,63.89
2019-05-10T04:18:40.894Z,63.92
2019-05-10T04:21:10.892Z,63.84
2019-05-10T04:23:41.089Z,63.92
2019-05-10T04:26:11.200Z,64.17
2019-05-10T04:28:41.042Z,64.01
2019-05-10T04:31:10.867Z,64.00
2019-05-10T04:33:40.702Z,63.74
2019-05-10T04:36:12.739Z,63.52
2019-05-10T04:38:42.052Z,63.28
2019-05-10T04:41:12.085Z,63.16
2019-05-10T04:43:41.885Z,63.10
2019-05-10T04:46:12.058Z,63.22
2019-05-10T04:48:41.813Z,63.30
2019-05-10T04:51:11.710Z,63.56
2019-05-10T04:53:41.798Z,63.73
2019-05-10T04:56:11.955Z,63.49
2019-05-10T04:58:42.502Z,63.47
2019-05-10T05:01:12.215Z,63.59
2019-05-10T05:03:42.873Z,63.69
2019-05-10T05:06:13.922Z,63.43
2019-05-10T05:08:43.724Z,63.07
2019-05-10T05:11:13.538Z,61.88
2019-05-10T05:13:43.941Z,60.48
2019-05-10T05:16:14.236Z,58.62
2019-05-10T05:18:44.401Z,59.23
2019-05-10T05:21:14.255Z,60.50
2019-05-10T05:23:44.117Z,61.00
2019-05-10T05:26:13.976Z,59.48
2019-05-10T05:28:43.800Z,56.78
2019-05-10T05:31:13.635Z,55.52
2019-05-10T05:33:43.567Z,56.58
2019-05-10T05:36:13.966Z,58.24
2019-05-10T05:38:47.262Z,59.02
2019-05-10T05:41:15.701Z,60.53
2019-05-10T05:43:46.609Z,61.63
2019-05-10T05:46:17.072Z,62.28
2019-05-10T05:48:47.034Z,62.55
2019-05-10T05:51:16.954Z,62.92
2019-05-10T05:53:46.796Z,63.07
2019-05-10T05:56:16.739Z,62.86
2019-05-10T05:58:47.210Z,62.74
2019-05-10T06:01:26.212Z,62.73
2019-05-10T06:03:48.895Z,62.26
2019-05-10T06:06:23.478Z,60.43
2019-05-10T06:08:54.516Z,58.58
2019-05-10T06:11:22.298Z,58.84
2019-05-10T06:13:52.117Z,59.87
2019-05-10T06:16:22.370Z,60.84
2019-05-10T06:18:52.572Z,61.43
2019-05-10T06:21:24.517Z,61.76
2019-05-10T06:23:54.847Z,61.83
2019-05-10T06:26:28.546Z,61.85
2019-05-10T06:29:03.344Z,61.99
2019-05-10T06:31:27.910Z,62.17
2019-05-10T06:33:57.750Z,62.42
2019-05-10T06:36:27.775Z,62.63
2019-05-10T06:38:57.701Z,62.49
2019-05-10T06:41:28.128Z,62.44
2019-05-10T06:43:58.599Z,62.50
2019-05-10T06:46:29.396Z,62.76
2019-05-10T06:49:07.211Z,62.79
2019-05-10T06:51:31.958Z,62.75
2019-05-10T06:54:01.818Z,62.63
2019-05-10T06:56:31.907Z,62.76
2019-05-10T06:59:12.828Z,62.74
2019-05-10T07:01:38.480Z,62.61
2019-05-10T07:04:05.632Z,62.44
2019-05-10T07:06:35.430Z,62.32
2019-05-10T07:09:06.970Z,62.25
2019-05-10T07:11:36.927Z,62.11
2019-05-10T07:14:06.865Z,62.12
2019-05-10T07:16:36.650Z,62.10
2019-05-10T07:19:06.747Z,62.20
2019-05-10T07:21:38.971Z,62.05
2019-05-10T07:24:08.993Z,61.96
2019-05-10T07:26:38.811Z,62.08
2019-05-10T07:29:09.132Z,62.00
2019-05-10T07:31:39.313Z,61.81
2019-05-10T07:34:15.066Z,61.46
2019-05-10T07:36:41.605Z,61.60
2019-05-10T07:39:11.463Z,61.81
2019-05-10T07:41:41.448Z,62.37
2019-05-10T07:44:11.395Z,62.72
2019-05-10T07:46:46.442Z,62.81
2019-05-10T07:49:14.051Z,62.82
2019-05-10T07:51:44.002Z,62.80
2019-05-10T07:54:14.656Z,62.95
2019-05-10T07:56:45.548Z,63.46
2019-05-10T07:59:21.497Z,63.74
2019-05-10T08:01:49.197Z,64.02
2019-05-10T08:04:28.054Z,64.03
2019-05-10T08:06:51.950Z,63.82
2019-05-10T08:09:22.147Z,63.40
2019-05-10T08:11:54.140Z,63.18
2019-05-10T08:14:25.465Z,63.15
2019-05-10T08:17:01.975Z,63.32
2019-05-10T08:19:32.792Z,63.62
2019-05-10T08:22:04.333Z,63.95
2019-05-10T08:24:35.358Z,64.12
2019-05-10T08:27:11.227Z,63.98
2019-05-10T08:29:35.678Z,63.90
2019-05-10T08:32:06.002Z,63.60
2019-05-10T08:34:39.385Z,63.61
2019-05-10T08:37:07.637Z,63.61
2019-05-10T08:39:45.115Z,63.84
2019-05-10T08:42:30.419Z,63.95
2019-05-10T08:44:42.665Z,63.48
2019-05-10T08:47:19.578Z,63.46
2019-05-10T08:49:57.147Z,63.68
2019-05-10T08:52:19.401Z,64.26
2019-05-10T08:54:47.541Z,64.36
2019-05-10T08:57:18.836Z,64.61
2019-05-10T08:59:54.241Z,64.76
2019-05-10T09:02:28.934Z,65.17
2019-05-10T09:04:53.753Z,65.63
2019-05-10T09:07:23.541Z,65.55
2019-05-10T09:09:53.374Z,65.46
2019-05-10T09:12:23.316Z,64.91
2019-05-10T09:14:57.586Z,64.33
2019-05-10T09:17:28.305Z,64.20
2019-05-10T09:19:56.317Z,64.82
2019-05-10T09:22:34.098Z,64.33
2019-05-10T09:24:57.885Z,64.12
2019-05-10T09:27:29.093Z,64.05
2019-05-10T09:29:59.348Z,64.10
2019-05-10T09:32:30.632Z,63.96
2019-05-10T09:35:07.974Z,64.09
2019-05-10T09:37:32.429Z,64.18
2019-05-10T09:40:09.224Z,64.33
2019-05-10T09:42:39.981Z,64.33
2019-05-10T09:45:09.527Z,64.15
2019-05-10T09:47:39.187Z,63.76
2019-05-10T09:50:09.489Z,63.23
2019-05-10T09:52:39.653Z,62.67
2019-05-10T09:55:14.770Z,61.99
2019-05-10T09:57:43.018Z,61.60
2019-05-10T10:00:13.913Z,61.57
2019-05-10T10:02:47.821Z,61.88
2019-05-10T10:05:17.885Z,62.70
2019-05-10T10:07:48.590Z,63.33
2019-05-10T10:10:28.600Z,63.97
2019-05-10T10:12:50.913Z,64.42
2019-05-10T10:15:32.180Z,64.95
2019-05-10T10:17:52.803Z,65.65
2019-05-10T10:20:22.655Z,65.79
2019-05-10T10:22:54.653Z,65.69
2019-05-10T10:25:27.742Z,65.27
2019-05-10T10:27:57.410Z,64.44
2019-05-10T10:30:31.117Z,63.84
2019-05-10T10:32:59.390Z,63.01
2019-05-10T10:35:29.960Z,62.14
2019-05-10T10:38:03.122Z,61.53
2019-05-10T10:40:35.343Z,61.00
2019-05-10T10:43:03.147Z,60.21
2019-05-10T10:45:33.046Z,59.87
2019-05-10T10:48:10.678Z,59.23
2019-05-10T10:50:34.511Z,58.86
2019-05-10T10:53:04.976Z,58.67
2019-05-10T10:55:39.361Z,58.65
2019-05-10T10:58:07.527Z,58.32
2019-05-10T11:00:39.192Z,58.81
2019-05-10T11:03:09.256Z,59.19
2019-05-10T11:05:39.381Z,59.12
2019-05-10T11:08:11.162Z,58.90
2019-05-10T11:10:43.029Z,58.72
2019-05-10T11:13:18.980Z,58.99
2019-05-10T11:15:44.452Z,58.92
2019-05-10T11:18:14.287Z,59.06
2019-05-10T11:20:49.533Z,58.90
2019-05-10T11:23:16.408Z,58.93
2019-05-10T11:25:54.730Z,59.02
2019-05-10T11:28:20.534Z,58.97
2019-05-10T11:30:51.178Z,59.24
2019-05-10T11:33:27.235Z,59.07
2019-05-10T11:35:52.632Z,58.85
2019-05-10T11:38:22.509Z,58.87
2019-05-10T11:40:52.425Z,59.27
2019-05-10T11:43:26.944Z,59.64
2019-05-10T11:45:54.799Z,59.95
2019-05-10T11:48:37.416Z,59.87
2019-05-10T11:51:12.509Z,60.01
2019-05-10T11:53:48.769Z,60.43
2019-05-10T11:56:16.351Z,60.38
2019-05-10T11:58:54.966Z,60.38
2019-05-10T12:01:22.429Z,60.28
2019-05-10T12:03:57.352Z,60.20
2019-05-10T12:06:41.214Z,59.84
2019-05-10T12:09:12.695Z,59.24
2019-05-10T12:11:56.664Z,59.31
2019-05-10T12:14:22.071Z,59.34
2019-05-10T12:16:54.815Z,58.92
2019-05-10T12:19:25.092Z,58.59
2019-05-10T12:21:56.831Z,57.85
2019-05-10T12:24:46.661Z,56.94
2019-05-10T12:27:18.971Z,56.61
2019-05-10T12:29:39.143Z,56.26
2019-05-10T12:32:10.442Z,56.33
2019-05-10T12:34:40.989Z,56.61
2019-05-10T12:37:11.306Z,56.88
2019-05-10T12:39:41.187Z,57.20
2019-05-10T12:42:14.355Z,56.87
2019-05-10T12:44:48.062Z,56.86
2019-05-10T12:47:15.257Z,56.88
2019-05-10T12:49:45.175Z,57.16
2019-05-10T12:52:16.277Z,57.37
2019-05-10T12:54:46.311Z,58.19
2019-05-10T12:57:16.264Z,58.63
2019-05-10T12:59:46.155Z,58.22
2019-05-10T13:02:16.194Z,58.53
2019-05-10T13:04:47.330Z,58.24
2019-05-10T13:07:17.702Z,57.97
2019-05-10T13:09:49.803Z,57.70
2019-05-10T13:12:19.156Z,57.40
2019-05-10T13:14:52.712Z,57.65
2019-05-10T13:17:20.681Z,57.70
2019-05-10T13:19:52.785Z,57.71
2019-05-10T13:22:24.212Z,57.94
2019-05-10T13:24:54.409Z,58.45
2019-05-10T13:27:24.342Z,58.58
2019-05-10T13:29:54.407Z,58.12
2019-05-10T13:32:24.843Z,57.85
2019-05-10T13:34:55.628Z,56.94
2019-05-10T13:37:25.673Z,57.40
2019-05-10T13:39:58.334Z,57.11
2019-05-10T13:42:27.523Z,56.87
2019-05-10T13:44:57.600Z,56.81
2019-05-10T13:47:27.486Z,56.69
2019-05-10T13:49:57.369Z,56.13
2019-05-10T13:52:29.628Z,56.42
2019-05-10T13:54:59.155Z,56.14
2019-05-10T13:57:30.079Z,55.95
2019-05-10T14:00:02.449Z,56.05
2019-05-10T14:02:34.554Z,56.36
2019-05-10T14:05:04.348Z,56.14
2019-05-10T14:07:34.388Z,57.04
2019-05-10T14:10:04.725Z,57.27
2019-05-10T14:12:35.513Z,57.15
2019-05-10T14:15:12.915Z,56.87
2019-05-10T14:17:38.851Z,56.91
2019-05-10T14:20:19.588Z,56.89
2019-05-10T14:22:48.535Z,56.56
2019-05-10T14:25:17.718Z,56.57
2019-05-10T14:27:47.657Z,56.28
2019-05-10T14:30:18.593Z,55.95
2019-05-10T14:32:48.904Z,55.89
2019-05-10T14:35:22.501Z,55.76
2019-05-10T14:37:51.035Z,55.38
2019-05-10T14:40:27.855Z,55.50
2019-05-10T14:42:53.178Z,55.38
2019-05-10T14:45:23.882Z,54.78
2019-05-10T14:47:53.703Z,54.79
2019-05-10T14:50:26.100Z,54.96
2019-05-10T14:52:55.211Z,54.99
2019-05-10T14:55:28.102Z,55.36
2019-05-10T14:57:57.732Z,54.83
2019-05-10T15:00:29.206Z,53.87
2019-05-10T15:03:02.132Z,54.64
2019-05-10T15:05:30.996Z,54.61
2019-05-10T15:08:01.226Z,54.98
2019-05-10T15:10:32.966Z,55.02
2019-05-10T15:13:02.659Z,55.29
2019-05-10T15:15:37.210Z,55.21
2019-05-10T15:18:05.188Z,55.46
2019-05-10T15:20:36.009Z,55.28
2019-05-10T15:23:06.426Z,55.26
2019-05-10T15:25:37.851Z,55.05
2019-05-10T15:28:08.075Z,54.46
2019-05-10T15:30:39.327Z,53.97
2019-05-10T15:33:10.791Z,54.35
2019-05-10T15:35:45.725Z,54.73
2019-05-10T15:38:12.321Z,55.25
2019-05-10T15:40:46.008Z,55.71
2019-05-10T15:43:18.639Z,55.82
2019-05-10T15:45:54.910Z,55.82
2019-05-10T15:48:21.735Z,55.52
2019-05-10T15:50:51.792Z,55.11
2019-05-10T15:53:25.637Z,55.18
2019-05-10T15:55:53.361Z,55.27
2019-05-10T15:58:23.536Z,55.33
2019-05-10T16:00:53.395Z,55.31
2019-05-10T16:03:23.335Z,55.69
2019-05-10T16:06:00.869Z,55.64
2019-05-10T16:08:30.279Z,55.56
2019-05-10T16:10:57.094Z,55.35
2019-05-10T16:13:26.916Z,55.07
2019-05-10T16:15:57.817Z,54.80
2019-05-10T16:18:33.497Z,54.74
2019-05-10T16:21:00.133Z,54.76
2019-05-10T16:23:30.177Z,54.98
2019-05-10T16:26:00.676Z,55.02
2019-05-10T16:28:30.492Z,55.03
2019-05-10T16:31:00.705Z,55.02
2019-05-10T16:33:30.721Z,54.87
2019-05-10T16:36:00.776Z,54.92
2019-05-10T16:38:30.922Z,54.89
2019-05-10T16:41:01.248Z,54.99
2019-05-10T16:43:31.291Z,55.55
2019-05-10T16:46:02.299Z,55.74
2019-05-10T16:48:32.194Z,55.67
2019-05-10T16:51:03.957Z,55.59
2019-05-10T16:53:37.663Z,55.34
2019-05-10T16:56:05.370Z,55.12
2019-05-10T16:58:35.250Z,55.05
2019-05-10T17:01:05.311Z,54.73
2019-05-10T17:03:40.460Z,54.63
2019-05-10T17:06:27.560Z,54.63
2019-05-10T17:08:57.567Z,54.73
2019-05-10T17:11:27.836Z,54.93
2019-05-10T17:13:57.819Z,55.37
2019-05-10T17:16:27.618Z,55.48
2019-05-10T17:18:57.558Z,55.56
2019-05-10T17:21:27.493Z,55.64
2019-05-10T17:23:57.406Z,55.81
2019-05-10T17:26:27.483Z,56.13
2019-05-10T17:28:57.500Z,56.23
2019-05-10T17:31:27.475Z,56.30
2019-05-10T17:33:57.385Z,56.43
2019-05-10T17:36:27.368Z,56.64
2019-05-10T17:38:57.689Z,56.58
2019-05-10T17:41:28.014Z,56.64
2019-05-10T17:43:58.073Z,56.71
2019-05-10T17:46:27.959Z,56.83
2019-05-10T17:48:59.060Z,57.05
2019-05-10T17:51:29.180Z,57.29
2019-05-10T17:54:01.672Z,57.46
2019-05-10T17:56:39.005Z,57.69
2019-05-10T17:59:11.674Z,57.68
2019-05-10T18:01:38.138Z,57.70
2019-05-10T18:04:14.237Z,57.65
2019-05-10T18:06:48.510Z,57.67
2019-05-10T18:09:25.375Z,57.75
2019-05-10T18:11:55.828Z,57.80
2019-05-10T18:14:32.284Z,57.85
2019-05-10T18:17:07.103Z,57.88
2019-05-10T18:19:37.829Z,57.85
2019-05-10T18:22:07.999Z,57.89
2019-05-10T18:24:42.168Z,58.02
2019-05-10T18:27:09.877Z,58.06
2019-05-10T18:29:40.033Z,58.14
2019-05-10T18:32:11.202Z,58.21
2019-05-10T18:34:41.465Z,58.26
2019-05-10T18:37:15.929Z,58.29
2019-05-10T18:39:47.355Z,58.39
2019-05-10T18:42:18.724Z,58.45
2019-05-10T18:44:51.921Z,58.48
2019-05-10T18:47:18.266Z,58.63
2019-05-10T18:49:48.167Z,58.84
2019-05-10T18:52:23.169Z,58.94
2019-05-10T18:55:05.671Z,59.16
2019-05-10T18:57:50.749Z,59.41
2019-05-10T19:00:32.601Z,59.53
2019-05-10T19:06:31.333Z,59.56
2019-05-10T19:09:02.281Z,59.62
2019-05-10T19:11:38.509Z,59.64
2019-05-10T19:14:05.111Z,59.64
2019-05-10T19:16:35.271Z,59.70
2019-05-10T19:19:05.464Z,59.71
2019-05-10T19:21:37.848Z,59.73
2019-05-10T19:24:07.386Z,59.65
2019-05-10T19:26:37.388Z,59.56
2019-05-10T19:29:08.378Z,59.48
2019-05-10T19:31:40.490Z,59.54
2019-05-10T19:34:15.473Z,59.60
2019-05-10T19:36:42.452Z,59.56
2019-05-10T19:39:12.546Z,59.63
2019-05-10T19:41:42.583Z,59.68
2019-05-10T19:44:12.868Z,59.72
2019-05-10T19:46:43.034Z,59.74
2019-05-10T19:49:15.471Z,59.83
2019-05-10T19:51:48.559Z,59.89
2019-05-10T19:54:19.476Z,59.94
2019-05-10T19:56:49.003Z,59.93
2019-05-10T19:59:19.177Z,59.94
2019-05-10T20:01:49.249Z,59.99
2019-05-10T20:04:19.149Z,60.07
2019-05-10T20:06:49.952Z,60.04
2019-05-10T20:09:19.912Z,59.92
2019-05-10T20:11:49.939Z,59.91
2019-05-10T20:14:20.285Z,60.02
2019-05-10T20:16:53.107Z,60.19
2019-05-10T20:19:22.326Z,60.34
2019-05-10T20:21:52.576Z,60.42
2019-05-10T20:24:23.673Z,60.46
2019-05-10T20:26:53.734Z,60.54
2019-05-10T20:29:23.945Z,60.41
2019-05-10T20:31:55.274Z,60.40
2019-05-10T20:34:25.219Z,60.35
2019-05-10T20:36:55.195Z,60.37
2019-05-10T20:39:25.050Z,60.46
2019-05-10T20:41:55.625Z,60.62
2019-05-10T20:44:25.671Z,60.83
2019-05-10T20:46:55.923Z,60.99
2019-05-10T20:49:26.057Z,61.00
2019-05-10T20:51:55.960Z,60.99
2019-05-10T20:54:26.224Z,61.04
2019-05-10T20:56:56.000Z,61.08
2019-05-10T20:59:25.820Z,61.05
2019-05-10T21:01:56.047Z,61.00
2019-05-10T21:04:32.064Z,60.83
2019-05-10T21:07:02.078Z,60.77
2019-05-10T21:09:32.441Z,60.67
2019-05-10T21:12:02.610Z,60.52
2019-05-10T21:14:35.007Z,60.45
2019-05-10T21:17:08.024Z,60.35
2019-05-10T21:19:37.982Z,60.12
2019-05-10T21:22:08.040Z,60.09
2019-05-10T21:24:40.588Z,60.22
2019-05-10T21:27:11.329Z,60.38
2019-05-10T21:29:41.688Z,60.55
2019-05-10T21:32:11.592Z,60.55
2019-05-10T21:34:41.550Z,60.52
2019-05-10T21:37:14.589Z,60.58
2019-05-10T21:39:44.816Z,60.43
2019-05-10T21:42:15.366Z,60.23
2019-05-10T21:44:46.808Z,59.98
2019-05-10T21:47:20.808Z,59.77
2019-05-10T21:49:51.036Z,59.60
2019-05-10T21:52:21.312Z,59.42
2019-05-10T21:54:51.863Z,59.67
2019-05-10T21:57:22.039Z,60.01
2019-05-10T21:59:51.857Z,60.00
2019-05-10T22:02:21.943Z,59.97
2019-05-10T22:04:51.825Z,60.10
2019-05-10T22:07:21.697Z,60.23
2019-05-10T22:09:52.027Z,60.14
2019-05-10T22:12:22.289Z,60.16
2019-05-10T22:14:52.309Z,60.35
2019-05-10T22:17:22.178Z,60.58
2019-05-10T22:19:52.185Z,60.86
2019-05-10T22:22:22.541Z,60.91
2019-05-10T22:24:52.724Z,61.02
2019-05-10T22:27:22.681Z,60.95
2019-05-10T22:29:52.540Z,60.82
2019-05-10T22:32:23.796Z,60.75
2019-05-10T22:34:54.135Z,60.97
2019-05-10T22:37:24.122Z,61.02
2019-05-10T22:39:54.006Z,61.25
2019-05-10T22:42:23.960Z,61.45
2019-05-10T22:44:54.336Z,61.49
2019-05-10T22:47:25.469Z,61.50
2019-05-10T22:49:55.667Z,61.68
2019-05-10T22:52:25.900Z,61.71
2019-05-10T22:54:55.700Z,61.78
2019-05-10T22:57:26.821Z,61.71
2019-05-10T22:59:56.712Z,61.64
2019-05-10T23:02:26.651Z,61.51
2019-05-10T23:04:56.577Z,61.22
2019-05-10T23:07:26.573Z,61.32
2019-05-10T23:09:56.654Z,61.51
2019-05-10T23:12:26.810Z,61.47
2019-05-10T23:14:56.783Z,61.46
2019-05-10T23:17:26.778Z,61.43
2019-05-10T23:19:56.980Z,61.30
2019-05-10T23:22:28.298Z,61.44
2019-05-10T23:24:58.121Z,61.56
2019-05-10T23:27:28.400Z,61.66
2019-05-10T23:29:58.313Z,61.86
2019-05-10T23:32:28.354Z,61.93
2019-05-10T23:34:58.507Z,62.24
2019-05-10T23:37:28.739Z,62.23
2019-05-10T23:39:58.696Z,62.13
2019-05-10T23:44:57.309Z,61.84
2019-05-10T23:47:27.597Z,61.86
2019-05-10T23:49:57.495Z,62.24
2019-05-10T23:52:27.344Z,62.75
2019-05-10T23:54:57.260Z,62.89
2019-05-10T23:57:27.287Z,63.14
2019-05-10T23:59:57.174Z,63.52
